Norma K III — WDH8805 — position and weather

sailwx.info

Track history (hours):
 
Tides and Currents Weather Stations Pressure Air Temp Water Temp Dewpoint Dewpoint Depression Visibility Wind Speed Wind Dir Waves Ship Positions

Norma K III

Owner: NORMA K CORP, BRICKTOWN, NJ. More information available from US FCC via Universal Licensing System and Coast Guard Vessel Documentation Center.

Last reported at 2018-May-22 16:49 UTC. Time now 2018-May-25 06:55 UTC.
Position N 40°06' W 074°02'.

Length 32 m.

Type: Passenger vessel. MMSI: 367661650.

Date/timePositionNaut miles runAvg speedWind from/ knotsBaromVisibWave heightAir tempDewpointWater temp
2018-May-22 16:49N 40°06' W 074°02'3 7.7
2018-May-22 16:27N 40°03' W 074°01'3 2.2
2018-May-22 15:15N 40°01' W 073°60'0 0.0
2018-May-22 14:59N 40°01' W 073°60'0 0.1
2018-May-22 14:28N 40°01' W 073°60'0 0.4
2018-May-22 14:00N 40°01' W 073°59'0 0.3
2018-May-22 13:14N 40°01' W 073°60'0 0.0
2018-May-22 13:00N 40°01' W 073°60'0 0.1
2018-May-22 12:29N 40°01' W 073°60'611.6
2018-May-22 12:00N 40°06' W 074°02'0 0.0
2018-May-21 22:31N 40°06' W 074°02'0 9.0
2018-May-21 22:30N 40°06' W 074°02'4 8.3
2018-May-21 22:00N 40°02' W 073°60'1 0.6
2018-May-21 20:11N 40°01' W 073°60'0 0.0
2018-May-21 19:46N 40°01' W 073°60'  
Track history (hours):
 
Tides and Currents Weather Stations Pressure Air Temp Water Temp Dewpoint Dewpoint Depression Visibility Wind Speed Wind Dir Waves Ship Positions

Norma K III

Owner: NORMA K CORP, BRICKTOWN, NJ. More information available from US FCC via Universal Licensing System and Coast Guard Vessel Documentation Center.

Last reported at 2018-May-22 16:49 UTC. Time now 2018-May-25 06:55 UTC.
Position N 40°06' W 074°02'.

Length 32 m.

Type: Passenger vessel. MMSI: 367661650.

Date/timePositionNaut miles runAvg speedWind from/ knotsBaromVisibWave heightAir tempDewpointWater temp
2018-May-22 16:49N 40°06' W 074°02'3 7.7
2018-May-22 16:27N 40°03' W 074°01'3 2.2
2018-May-22 15:15N 40°01' W 073°60'0 0.0
2018-May-22 14:59N 40°01' W 073°60'0 0.1
2018-May-22 14:28N 40°01' W 073°60'0 0.4
2018-May-22 14:00N 40°01' W 073°59'0 0.3
2018-May-22 13:14N 40°01' W 073°60'0 0.0
2018-May-22 13:00N 40°01' W 073°60'0 0.1
2018-May-22 12:29N 40°01' W 073°60'611.6
2018-May-22 12:00N 40°06' W 074°02'0 0.0
2018-May-21 22:31N 40°06' W 074°02'0 9.0
2018-May-21 22:30N 40°06' W 074°02'4 8.3
2018-May-21 22:00N 40°02' W 073°60'1 0.6
2018-May-21 20:11N 40°01' W 073°60'0 0.0
2018-May-21 19:46N 40°01' W 073°60'  

Dump ship's entire track history